Virtual Norwegian is not affiliated with Norwegian Air Shuttle in any way.
If you are looking for the real "Norwegian", or you wish to book Norwegian flights, please visit Norwegian.com


We use cookies to ensure you get the best experience on our website.   ACCEPT

ENAL - AES - Alesund (Vigra)

General Info Alternate Airport
ICAO: ENAL Elevation: 69 ft ICAO: ENML
IATA: AES Country: Norway IATA: MOL
City: Alesund Charts: Log in to view charts City: Molde
Name: Vigra Hub: No Name Aro
General Info
ICAO: ENAL
IATA: AES
City: Alesund
Name: Vigra
Elevation: 69 ft
Country: Norway
Charts: Log in to view charts
Hub: No
 
Alternate Airport
ICAO: ENML
IATA: MOL
City: Molde
Name: Aro

Weather
240550Z 34012KT 300V020 9999 VCSH FEW014 SCT028 BKN044 06/03 Q1018
Weather
240550Z 34012KT 300V020 9999 VCSH FEW014 SCT028 BKN044 06/03 Q1018

Runway Info
07
Length ILS/LOC Heading
2314 m N/A 065
25
Length ILS/LOC Course
2314 m 111.95 245

NOTAMs
NOTAMs currently unavailable.
NOTAMs
NOTAMs currently unavailable

Route map
Airport
Airport (hub)